createdAt,value
2018-09-06T00:01:25.381Z,10.23
2018-09-06T00:03:54.920Z,8.73
2018-09-06T00:06:24.462Z,10.30
2018-09-06T00:08:54.011Z,10.10
2018-09-06T00:11:23.508Z,8.47
2018-09-06T00:13:53.056Z,7.27
2018-09-06T00:16:22.622Z,9.97
2018-09-06T00:18:52.499Z,9.20
2018-09-06T00:21:21.982Z,10.07
2018-09-06T00:23:51.593Z,9.00
2018-09-06T00:26:21.132Z,10.00
2018-09-06T00:28:50.703Z,8.17
2018-09-06T00:31:20.255Z,6.63
2018-09-06T00:33:49.756Z,9.17
2018-09-06T00:36:19.276Z,8.93
2018-09-06T00:38:48.796Z,8.33
2018-09-06T00:41:18.354Z,9.30
2018-09-06T00:43:47.890Z,9.57
2018-09-06T00:46:17.876Z,10.30
2018-09-06T00:48:47.406Z,11.87
2018-09-06T00:51:16.992Z,10.93
2018-09-06T00:53:46.521Z,10.47
2018-09-06T00:56:15.986Z,9.80
2018-09-06T00:58:45.585Z,7.17
2018-09-06T01:01:15.112Z,9.27
2018-09-06T01:03:44.581Z,9.67
2018-09-06T01:06:14.140Z,10.97
2018-09-06T01:08:44.267Z,9.87
2018-09-06T01:11:13.978Z,11.00
2018-09-06T01:13:43.529Z,10.03
2018-09-06T01:16:13.021Z,12.90
2018-09-06T01:18:42.885Z,8.27
2018-09-06T01:21:12.764Z,10.10
2018-09-06T01:23:42.530Z,7.13
2018-09-06T01:26:12.127Z,8.53
2018-09-06T01:28:41.606Z,9.13
2018-09-06T01:31:11.222Z,14.63
2018-09-06T01:33:40.873Z,8.30
2018-09-06T01:36:15.719Z,9.53
2018-09-06T01:38:45.676Z,10.17
2018-09-06T01:41:15.320Z,13.33
2018-09-06T01:43:44.807Z,9.17
2018-09-06T01:46:14.340Z,10.10
2018-09-06T01:48:44.159Z,10.73
2018-09-06T01:51:13.623Z,12.50
2018-09-06T01:53:43.140Z,9.70
2018-09-06T01:56:12.704Z,10.70
2018-09-06T01:58:42.244Z,10.50
2018-09-06T02:01:11.748Z,9.47
2018-09-06T02:03:41.261Z,9.90
2018-09-06T02:06:12.302Z,11.70
2018-09-06T02:08:42.420Z,8.90
2018-09-06T02:11:11.947Z,13.27
2018-09-06T02:13:41.468Z,11.70
2018-09-06T02:16:11.262Z,12.50
2018-09-06T02:18:40.744Z,10.57
2018-09-06T02:21:10.275Z,9.90
2018-09-06T02:23:40.091Z,8.70
2018-09-06T02:26:09.594Z,12.23
2018-09-06T02:28:39.103Z,12.60
2018-09-06T02:31:08.951Z,9.63
2018-09-06T02:33:38.460Z,14.50
2018-09-06T02:36:07.958Z,9.10
2018-09-06T02:38:37.471Z,11.77
2018-09-06T02:41:06.972Z,8.87
2018-09-06T02:43:36.976Z,14.47
2018-09-06T02:46:06.724Z,11.67
2018-09-06T02:48:41.457Z,13.57
2018-09-06T02:51:16.429Z,12.50
2018-09-06T02:53:46.193Z,11.20
2018-09-06T02:56:16.474Z,10.23
2018-09-06T02:58:46.068Z,10.53
2018-09-06T03:01:15.614Z,11.60
2018-09-06T03:03:45.149Z,11.00
2018-09-06T03:06:15.321Z,12.53
2018-09-06T03:08:45.375Z,10.23
2018-09-06T03:11:23.963Z,11.50
2018-09-06T03:13:53.904Z,8.53
2018-09-06T03:16:23.678Z,9.83
2018-09-06T03:18:53.514Z,9.33
2018-09-06T03:21:23.017Z,11.03
2018-09-06T03:23:52.571Z,9.40
2018-09-06T03:26:22.101Z,11.27
2018-09-06T03:28:51.769Z,12.07
2018-09-06T03:31:21.237Z,9.87
2018-09-06T03:33:50.727Z,10.93
2018-09-06T03:36:20.264Z,10.47
2018-09-06T03:38:50.085Z,10.63
2018-09-06T03:41:19.698Z,11.30
2018-09-06T03:43:49.209Z,12.30
2018-09-06T03:46:19.073Z,12.07
2018-09-06T03:48:48.758Z,9.00
2018-09-06T03:51:18.225Z,9.20
2018-09-06T03:53:47.798Z,13.17
2018-09-06T03:56:17.272Z,12.17
2018-09-06T03:58:46.817Z,14.17
2018-09-06T04:01:16.320Z,11.17
2018-09-06T04:03:46.588Z,13.47
2018-09-06T04:06:16.308Z,10.20
2018-09-06T04:08:45.836Z,11.17
2018-09-06T04:11:15.434Z,11.67
2018-09-06T04:13:44.994Z,10.77
2018-09-06T04:16:14.462Z,13.23
2018-09-06T04:18:44.002Z,10.17
2018-09-06T04:21:13.500Z,12.37
2018-09-06T04:23:43.099Z,11.30
2018-09-06T04:26:12.745Z,9.97
2018-09-06T04:28:42.430Z,9.27
2018-09-06T04:31:11.932Z,11.93
2018-09-06T04:33:41.639Z,11.00
2018-09-06T04:36:11.230Z,12.97
2018-09-06T04:38:41.216Z,13.67
2018-09-06T04:41:11.082Z,9.60
2018-09-06T04:43:40.650Z,13.07
2018-09-06T04:46:10.300Z,13.27
2018-09-06T04:48:39.841Z,10.20
2018-09-06T04:51:09.338Z,11.47
2018-09-06T04:53:38.984Z,10.73
2018-09-06T04:56:08.474Z,12.73
2018-09-06T04:58:38.080Z,12.60
2018-09-06T05:01:07.977Z,12.47
2018-09-06T05:03:37.560Z,11.83
2018-09-06T05:06:07.099Z,15.17
2018-09-06T05:08:36.782Z,12.73
2018-09-06T05:11:06.821Z,12.07
2018-09-06T05:13:36.344Z,16.37
2018-09-06T05:16:05.860Z,13.83
2018-09-06T05:18:35.653Z,14.33
2018-09-06T05:21:05.179Z,15.37
2018-09-06T05:23:34.819Z,12.30
2018-09-06T05:26:04.395Z,14.67
2018-09-06T05:28:35.003Z,12.50
2018-09-06T05:31:04.563Z,14.00
2018-09-06T05:33:34.074Z,14.33
2018-09-06T05:36:03.852Z,13.57
2018-09-06T05:38:33.682Z,16.10
2018-09-06T05:41:03.244Z,17.13
2018-09-06T05:43:32.772Z,16.60
2018-09-06T05:46:02.472Z,15.30
2018-09-06T05:48:32.218Z,14.80
2018-09-06T05:51:02.084Z,15.93
2018-09-06T05:53:31.706Z,20.33
2018-09-06T05:56:01.433Z,14.87
2018-09-06T05:58:31.313Z,22.90
2018-09-06T06:01:00.829Z,20.10
2018-09-06T06:03:30.421Z,17.97
2018-09-06T06:05:59.981Z,19.73
2018-09-06T06:08:40.351Z,17.30
2018-09-06T06:11:09.976Z,20.30
2018-09-06T06:13:40.191Z,18.63
2018-09-06T06:16:10.658Z,17.67
2018-09-06T06:18:40.496Z,25.73
2018-09-06T06:21:10.281Z,20.10
2018-09-06T06:23:39.803Z,19.57
2018-09-06T06:26:09.291Z,20.23
2018-09-06T06:28:38.952Z,18.80
2018-09-06T06:31:08.503Z,17.77
2018-09-06T06:33:38.350Z,22.40
2018-09-06T06:36:07.899Z,19.37
2018-09-06T06:38:37.439Z,21.27
2018-09-06T06:41:07.017Z,21.47
2018-09-06T06:43:36.682Z,20.40
2018-09-06T06:46:06.268Z,19.10
2018-09-06T06:48:36.042Z,18.73
2018-09-06T06:51:05.848Z,17.87
2018-09-06T06:53:35.447Z,19.27
2018-09-06T06:56:05.031Z,18.97
2018-09-06T06:58:34.619Z,18.10
2018-09-06T07:01:04.366Z,18.07
2018-09-06T07:03:34.296Z,20.70
2018-09-06T07:06:03.852Z,19.33
2018-09-06T07:08:33.477Z,20.00
2018-09-06T07:11:03.022Z,19.60
2018-09-06T07:13:32.591Z,18.80
2018-09-06T07:16:02.159Z,15.80
2018-09-06T07:18:31.733Z,15.80
2018-09-06T07:21:01.564Z,16.17
2018-09-06T07:23:31.377Z,16.73
2018-09-06T07:26:00.990Z,18.07
2018-09-06T07:28:30.551Z,18.07
2018-09-06T07:31:00.111Z,21.60
2018-09-06T07:33:29.686Z,15.67
2018-09-06T07:35:59.174Z,16.60
2018-09-06T07:38:28.727Z,16.77
2018-09-06T07:40:58.285Z,16.67
2018-09-06T07:43:27.829Z,16.93
2018-09-06T07:45:57.372Z,16.73
2018-09-06T07:48:27.230Z,17.37
2018-09-06T07:50:56.767Z,16.47
2018-09-06T07:53:26.658Z,15.60
2018-09-06T07:55:56.257Z,16.40
2018-09-06T07:58:25.810Z,15.47
2018-09-06T08:00:55.379Z,16.73
2018-09-06T08:03:25.004Z,23.60
2018-09-06T08:05:54.496Z,14.43
2018-09-06T08:08:24.126Z,16.97
2018-09-06T08:10:53.707Z,14.53
2018-09-06T08:13:23.247Z,19.00
2018-09-06T08:15:53.073Z,18.47
2018-09-06T08:18:22.570Z,19.57
2018-09-06T08:20:52.116Z,17.97
2018-09-06T08:23:22.026Z,19.40
2018-09-06T08:25:51.523Z,21.27
2018-09-06T08:28:21.061Z,18.80
2018-09-06T08:30:50.890Z,19.17
2018-09-06T08:33:20.629Z,20.43
2018-09-06T08:35:50.125Z,20.53
2018-09-06T08:38:19.763Z,18.00
2018-09-06T08:40:49.286Z,17.87
2018-09-06T08:43:18.850Z,19.67
2018-09-06T08:45:48.355Z,20.57
2018-09-06T08:48:17.896Z,18.13
2018-09-06T08:50:47.390Z,21.40
2018-09-06T08:53:16.835Z,18.70
2018-09-06T08:55:46.339Z,20.33
2018-09-06T08:58:16.414Z,20.57
2018-09-06T09:00:51.336Z,20.03
2018-09-06T09:03:20.868Z,17.40
2018-09-06T09:05:50.508Z,18.73
2018-09-06T09:08:20.055Z,18.83
2018-09-06T09:10:50.132Z,17.10
2018-09-06T09:13:19.759Z,18.23
2018-09-06T09:15:49.776Z,17.33
2018-09-06T09:18:19.702Z,18.27
2018-09-06T09:20:49.549Z,16.73
2018-09-06T09:23:19.452Z,16.70
2018-09-06T09:25:49.133Z,18.13
2018-09-06T09:28:18.744Z,19.60
2018-09-06T09:30:48.322Z,16.93
2018-09-06T09:33:17.853Z,20.03
2018-09-06T09:35:49.565Z,16.73
2018-09-06T09:38:19.159Z,21.23
2018-09-06T09:40:49.117Z,17.93
2018-09-06T09:43:18.973Z,18.80
2018-09-06T09:45:48.643Z,16.87
2018-09-06T09:48:18.527Z,16.47
2018-09-06T09:50:48.410Z,15.30
2018-09-06T09:53:17.939Z,14.43
2018-09-06T09:55:47.828Z,17.60
2018-09-06T09:58:17.414Z,13.40
2018-09-06T10:00:47.207Z,13.60
2018-09-06T10:03:22.021Z,15.23
2018-09-06T10:06:54.463Z,14.27
2018-09-06T10:09:26.407Z,13.77
2018-09-06T10:11:56.226Z,14.93
2018-09-06T10:14:25.770Z,18.13
2018-09-06T10:16:55.325Z,21.00
2018-09-06T10:19:24.818Z,18.47
2018-09-06T10:21:55.010Z,18.53
2018-09-06T10:24:24.514Z,17.73
2018-09-06T10:26:54.535Z,16.67
2018-09-06T10:29:24.398Z,16.53
2018-09-06T10:31:53.931Z,19.10
2018-09-06T10:34:23.811Z,16.33
2018-09-06T10:36:53.679Z,16.00
2018-09-06T10:39:23.218Z,17.67
2018-09-06T10:41:53.386Z,19.07
2018-09-06T10:44:23.249Z,19.13
2018-09-06T10:46:53.173Z,21.43
2018-09-06T10:49:22.741Z,18.43
2018-09-06T10:51:52.280Z,23.27
2018-09-06T10:54:21.838Z,19.17
2018-09-06T10:56:51.669Z,21.67
2018-09-06T10:59:21.329Z,21.87
2018-09-06T11:01:50.806Z,19.87
2018-09-06T11:04:20.334Z,20.67
2018-09-06T11:06:49.846Z,22.00
2018-09-06T11:09:19.414Z,18.97
2018-09-06T11:11:48.993Z,20.03
2018-09-06T11:14:18.524Z,20.27
2018-09-06T11:16:48.015Z,18.33
2018-09-06T11:19:17.583Z,19.87
2018-09-06T11:21:47.211Z,19.10
2018-09-06T11:24:16.773Z,19.00
2018-09-06T11:26:46.279Z,21.80
2018-09-06T11:29:15.884Z,19.20
2018-09-06T11:31:45.590Z,18.37
2018-09-06T11:34:15.089Z,19.17
2018-09-06T11:36:45.403Z,20.27
2018-09-06T11:39:15.327Z,20.10
2018-09-06T11:41:45.193Z,25.60
2018-09-06T11:44:14.667Z,19.17
2018-09-06T11:46:44.625Z,19.97
2018-09-06T11:49:14.679Z,19.43
2018-09-06T11:51:45.039Z,19.50
2018-09-06T11:54:14.602Z,21.10
2018-09-06T11:56:44.326Z,17.30
2018-09-06T11:59:13.961Z,17.37
2018-09-06T12:01:43.855Z,16.50
2018-09-06T12:04:13.402Z,17.37
2018-09-06T12:06:43.241Z,17.87
2018-09-06T12:09:13.146Z,16.47
2018-09-06T12:11:42.655Z,15.63
2018-09-06T12:14:12.207Z,14.40
2018-09-06T12:16:42.126Z,13.27
2018-09-06T12:19:11.649Z,16.67
2018-09-06T12:21:41.385Z,14.97
2018-09-06T12:24:11.226Z,13.93
2018-09-06T12:26:41.045Z,16.40
2018-09-06T12:29:10.552Z,15.63
2018-09-06T12:31:40.958Z,15.30
2018-09-06T12:34:10.489Z,14.43
2018-09-06T12:36:40.014Z,14.37
2018-09-06T12:39:10.199Z,14.20
2018-09-06T12:41:40.194Z,14.57
2018-09-06T12:44:10.084Z,17.40
2018-09-06T12:46:39.626Z,12.60
2018-09-06T12:49:09.518Z,14.20
2018-09-06T12:51:39.036Z,14.43
2018-09-06T12:54:08.918Z,14.23
2018-09-06T12:56:38.830Z,14.53
2018-09-06T12:59:08.537Z,13.97
2018-09-06T13:01:38.053Z,18.53
2018-09-06T13:04:08.254Z,15.77
2018-09-06T13:06:37.768Z,13.27
2018-09-06T13:09:08.201Z,15.80
2018-09-06T13:11:38.346Z,16.53
2018-09-06T13:14:07.840Z,16.27
2018-09-06T13:16:37.428Z,15.87
2018-09-06T13:19:07.824Z,16.73
2018-09-06T13:21:37.431Z,17.07
2018-09-06T13:24:06.931Z,19.40
2018-09-06T13:26:36.375Z,15.93
2018-09-06T13:29:06.213Z,18.40
2018-09-06T13:31:35.713Z,16.87
2018-09-06T13:34:05.362Z,16.23
2018-09-06T13:36:34.889Z,18.30
2018-09-06T13:39:06.602Z,15.13
2018-09-06T13:41:36.130Z,17.07
2018-09-06T13:44:05.624Z,16.13
2018-09-06T13:46:35.252Z,16.50
2018-09-06T13:49:05.403Z,17.07
2018-09-06T13:51:35.180Z,15.97
2018-09-06T13:54:05.096Z,15.70
2018-09-06T13:56:34.678Z,17.60
2018-09-06T13:59:04.403Z,17.50
2018-09-06T14:01:34.052Z,16.83
2018-09-06T14:04:03.608Z,17.47
2018-09-06T14:06:33.138Z,17.93
2018-09-06T14:09:02.734Z,17.00
2018-09-06T14:11:32.242Z,17.40
2018-09-06T14:14:01.874Z,16.67
2018-09-06T14:16:31.441Z,18.97
2018-09-06T14:19:01.096Z,17.73
2018-09-06T14:21:30.654Z,17.30
2018-09-06T14:24:00.320Z,18.47
2018-09-06T14:26:29.949Z,18.27
2018-09-06T14:28:59.469Z,17.83
2018-09-06T14:31:29.034Z,19.77
2018-09-06T14:33:58.596Z,18.37
2018-09-06T14:36:28.361Z,17.87
2018-09-06T14:38:58.488Z,18.27
2018-09-06T14:41:28.178Z,19.63
2018-09-06T14:43:57.701Z,18.27
2018-09-06T14:46:27.409Z,18.07
2018-09-06T14:48:56.940Z,17.93
2018-09-06T14:51:26.516Z,19.70
2018-09-06T14:53:56.029Z,18.20
2018-09-06T14:56:25.564Z,20.33
2018-09-06T14:58:55.057Z,18.77
2018-09-06T15:01:24.577Z,17.90
2018-09-06T15:03:54.284Z,18.73
2018-09-06T15:06:23.760Z,19.67
2018-09-06T15:08:53.264Z,18.30
2018-09-06T15:11:22.907Z,20.17
2018-09-06T15:13:52.465Z,20.07
2018-09-06T15:16:22.125Z,22.73
2018-09-06T15:18:51.695Z,20.27
2018-09-06T15:21:21.752Z,21.60
2018-09-06T15:23:51.260Z,19.83
2018-09-06T15:26:20.813Z,20.57
2018-09-06T15:28:50.350Z,18.60
2018-09-06T15:31:19.887Z,18.57
2018-09-06T15:33:49.484Z,20.30
2018-09-06T15:36:19.028Z,20.83
2018-09-06T15:38:48.692Z,20.63
2018-09-06T15:41:18.328Z,21.47
2018-09-06T15:43:47.841Z,21.13
2018-09-06T15:46:17.334Z,21.50
2018-09-06T15:48:46.903Z,21.03
2018-09-06T15:51:16.447Z,20.27
2018-09-06T15:53:46.017Z,20.87
2018-09-06T15:56:15.518Z,22.37
2018-09-06T15:58:45.065Z,22.67
2018-09-06T16:01:14.546Z,24.10
2018-09-06T16:03:44.082Z,23.83
2018-09-06T16:06:14.752Z,23.93
2018-09-06T16:08:44.255Z,25.23
2018-09-06T16:11:13.823Z,24.43
2018-09-06T16:13:43.615Z,30.13
2018-09-06T16:16:13.501Z,30.13
2018-09-06T16:18:43.027Z,28.43
2018-09-06T16:21:12.614Z,27.57
2018-09-06T16:23:42.177Z,29.70
2018-09-06T16:26:11.773Z,28.33
2018-09-06T16:28:41.384Z,25.77
2018-09-06T16:31:10.859Z,28.50
2018-09-06T16:33:40.481Z,28.93
2018-09-06T16:36:10.899Z,27.03
2018-09-06T16:38:40.438Z,27.80
2018-09-06T16:41:09.984Z,29.93
2018-09-06T16:43:39.535Z,26.90
2018-09-06T16:46:10.735Z,28.30
2018-09-06T16:48:40.212Z,27.27
2018-09-06T16:51:09.724Z,29.23
2018-09-06T16:53:39.290Z,29.50
2018-09-06T16:56:08.738Z,29.83
2018-09-06T16:58:38.258Z,28.43
2018-09-06T17:01:07.947Z,26.53
2018-09-06T17:03:37.795Z,27.80
2018-09-06T17:06:07.695Z,27.03
2018-09-06T17:08:37.262Z,29.83
2018-09-06T17:11:06.979Z,31.37
2018-09-06T17:13:36.460Z,31.03
2018-09-06T17:16:06.361Z,29.67
2018-09-06T17:18:36.136Z,29.43
2018-09-06T17:21:05.678Z,28.20
2018-09-06T17:23:35.186Z,29.07
2018-09-06T17:26:04.692Z,30.37
2018-09-06T17:28:34.467Z,31.70
2018-09-06T17:31:03.965Z,29.03
2018-09-06T17:33:33.481Z,33.70
2018-09-06T17:36:02.951Z,31.00
2018-09-06T17:38:32.531Z,30.47
2018-09-06T17:41:02.235Z,36.03
2018-09-06T17:43:31.843Z,39.93
2018-09-06T17:46:02.039Z,32.57
2018-09-06T17:48:31.616Z,13.43
2018-09-06T17:51:01.170Z,13.20
2018-09-06T17:53:30.789Z,13.30
2018-09-06T17:56:00.262Z,17.23
2018-09-06T17:58:29.824Z,16.20
2018-09-06T18:01:15.997Z,17.13
2018-09-06T18:03:46.456Z,18.07
2018-09-06T18:06:16.504Z,21.77
2018-09-06T18:08:46.232Z,22.40
2018-09-06T18:11:15.745Z,23.80
2018-09-06T18:13:45.665Z,24.17
2018-09-06T18:16:15.581Z,26.23
2018-09-06T18:18:45.150Z,29.10
2018-09-06T18:21:14.649Z,31.10
2018-09-06T18:23:44.233Z,32.33
2018-09-06T18:26:13.880Z,28.23
2018-09-06T18:28:43.858Z,34.53
2018-09-06T18:31:13.732Z,36.53
2018-09-06T18:33:43.581Z,37.83
2018-09-06T18:36:13.064Z,43.17
2018-09-06T18:38:43.185Z,38.27
2018-09-06T18:41:13.099Z,40.30
2018-09-06T18:43:42.814Z,40.77
2018-09-06T18:46:12.391Z,36.23
2018-09-06T18:48:42.216Z,34.47
2018-09-06T18:51:12.234Z,34.60
2018-09-06T18:53:42.310Z,36.43
2018-09-06T18:56:11.845Z,33.50
2018-09-06T18:58:41.447Z,32.43
2018-09-06T19:01:10.989Z,32.40
2018-09-06T19:03:40.520Z,34.07
2018-09-06T19:06:10.054Z,31.23
2018-09-06T19:08:39.567Z,32.60
2018-09-06T19:11:09.086Z,31.23
2018-09-06T19:13:38.598Z,34.43
2018-09-06T19:16:08.135Z,33.30
2018-09-06T19:18:39.978Z,37.10
2018-09-06T19:21:12.025Z,37.57
2018-09-06T19:23:43.606Z,34.77
2018-09-06T19:26:14.132Z,33.43
2018-09-06T19:28:43.997Z,32.40
2018-09-06T19:31:14.506Z,32.40
2018-09-06T19:33:44.962Z,33.47
2018-09-06T19:36:14.812Z,33.00
2018-09-06T19:38:48.197Z,33.93
2018-09-06T19:41:21.402Z,31.30
2018-09-06T19:43:54.013Z,31.10
2018-09-06T19:46:25.634Z,29.57
2018-09-06T19:48:55.486Z,30.60
2018-09-06T19:51:25.443Z,28.67
2018-09-06T19:53:58.571Z,27.90
2018-09-06T19:56:32.510Z,28.10
2018-09-06T19:59:05.615Z,26.53
2018-09-06T20:01:38.278Z,25.20
2018-09-06T20:04:10.904Z,23.20
2018-09-06T20:06:43.384Z,21.00
2018-09-06T20:09:15.875Z,20.80
2018-09-06T20:11:48.306Z,19.87
2018-09-06T20:14:19.869Z,20.97
2018-09-06T20:16:50.170Z,21.27
2018-09-06T20:19:21.926Z,20.93
2018-09-06T20:21:57.020Z,18.53
2018-09-06T20:24:29.879Z,20.63
2018-09-06T20:27:02.932Z,18.43
2018-09-06T20:29:36.224Z,18.47
2018-09-06T20:32:06.013Z,16.00
2018-09-06T20:34:40.098Z,14.23
2018-09-06T20:37:10.173Z,13.07
2018-09-06T20:39:43.042Z,12.63
2018-09-06T20:42:16.037Z,12.87
2018-09-06T20:44:48.421Z,12.73
2018-09-06T20:47:20.718Z,10.97
2018-09-06T20:49:52.582Z,10.87
2018-09-06T20:52:25.083Z,11.10
2018-09-06T20:54:58.099Z,12.33
2018-09-06T20:57:32.053Z,11.37
2018-09-06T21:00:05.121Z,10.53
2018-09-06T21:02:38.340Z,11.57
2018-09-06T21:05:11.223Z,10.37
2018-09-06T21:07:45.095Z,13.53
2018-09-06T21:10:17.824Z,12.17
2018-09-06T21:12:48.923Z,10.33
2018-09-06T21:15:22.066Z,10.50
2018-09-06T21:17:55.395Z,11.07
2018-09-06T21:20:28.176Z,9.83
2018-09-06T21:22:57.922Z,13.80
2018-09-06T21:25:27.427Z,10.87
2018-09-06T21:28:01.115Z,11.27
2018-09-06T21:30:34.417Z,12.00
2018-09-06T21:33:07.876Z,12.90
2018-09-06T21:35:40.709Z,15.10
2018-09-06T21:38:13.544Z,14.53
2018-09-06T21:40:45.847Z,15.13
2018-09-06T21:43:18.968Z,13.50
2018-09-06T21:45:51.852Z,13.43
2018-09-06T21:48:24.533Z,12.17
2018-09-06T21:50:57.409Z,12.30
2018-09-06T21:53:30.234Z,10.43
2018-09-06T21:56:02.973Z,10.37
2018-09-06T21:58:33.708Z,8.10
2018-09-06T22:01:06.666Z,12.00
2018-09-06T22:03:44.472Z,8.83
2018-09-06T22:06:17.853Z,8.60
2018-09-06T22:08:50.797Z,7.87
2018-09-06T22:11:20.665Z,8.33
2018-09-06T22:13:50.274Z,8.30
2018-09-06T22:16:20.000Z,10.93
2018-09-06T22:18:49.545Z,8.90
2018-09-06T22:21:19.087Z,12.03
2018-09-06T22:23:48.664Z,14.53
2018-09-06T22:26:18.286Z,13.10
2018-09-06T22:28:47.872Z,12.93
2018-09-06T22:31:17.464Z,14.60
2018-09-06T22:33:47.059Z,15.73
2018-09-06T22:36:16.766Z,15.97
2018-09-06T22:38:46.316Z,14.67
2018-09-06T22:41:15.869Z,16.13
2018-09-06T22:43:45.397Z,15.73
2018-09-06T22:46:14.934Z,15.53
2018-09-06T22:48:44.460Z,15.60
2018-09-06T22:51:14.150Z,17.13
2018-09-06T22:53:43.678Z,16.17
2018-09-06T22:56:13.233Z,17.70
2018-09-06T22:58:42.742Z,17.80
2018-09-06T23:01:12.203Z,17.23
2018-09-06T23:03:43.779Z,16.67
2018-09-06T23:06:13.316Z,19.07
2018-09-06T23:08:42.828Z,19.60
2018-09-06T23:11:12.451Z,19.47
2018-09-06T23:13:42.012Z,18.50
2018-09-06T23:16:11.534Z,16.13
2018-09-06T23:18:41.050Z,16.80
2018-09-06T23:21:10.892Z,19.47
2018-09-06T23:23:40.642Z,19.83
2018-09-06T23:26:10.478Z,22.33
2018-09-06T23:28:40.005Z,20.03
2018-09-06T23:31:09.492Z,21.53
2018-09-06T23:33:39.630Z,21.03
2018-09-06T23:36:09.157Z,20.73
2018-09-06T23:38:38.777Z,22.43
2018-09-06T23:41:08.573Z,23.67
2018-09-06T23:43:38.477Z,18.87
2018-09-06T23:46:07.977Z,22.33
2018-09-06T23:48:37.778Z,21.90
2018-09-06T23:51:07.294Z,21.00
2018-09-06T23:53:36.784Z,19.03
2018-09-06T23:56:06.295Z,20.00
2018-09-06T23:58:35.958Z,18.90
